sensor_id;sensor_type;location;lat;lon;timestamp;P1;durP1;ratioP1;P2;durP2;ratioP2
74241;SDS011;62599;49.146;10.426;2023-11-19T00:01:49;5.00;;;3.20;;
74241;SDS011;62599;49.146;10.426;2023-11-19T00:04:14;5.63;;;2.57;;
74241;SDS011;62599;49.146;10.426;2023-11-19T00:06:42;4.57;;;2.20;;
74241;SDS011;62599;49.146;10.426;2023-11-19T00:09:08;2.42;;;1.50;;
74241;SDS011;62599;49.146;10.426;2023-11-19T00:11:33;2.17;;;1.60;;
74241;SDS011;62599;49.146;10.426;2023-11-19T00:13:58;6.63;;;3.30;;
74241;SDS011;62599;49.146;10.426;2023-11-19T00:16:23;5.27;;;3.10;;
74241;SDS011;62599;49.146;10.426;2023-11-19T00:18:49;3.87;;;2.10;;
74241;SDS011;62599;49.146;10.426;2023-11-19T00:21:14;3.88;;;2.45;;
74241;SDS011;62599;49.146;10.426;2023-11-19T00:23:40;4.53;;;3.00;;
74241;SDS011;62599;49.146;10.426;2023-11-19T00:26:05;3.03;;;2.27;;
74241;SDS011;62599;49.146;10.426;2023-11-19T00:28:31;8.48;;;3.63;;
74241;SDS011;62599;49.146;10.426;2023-11-19T00:30:57;5.82;;;3.03;;
74241;SDS011;62599;49.146;10.426;2023-11-19T00:33:23;3.83;;;2.60;;
74241;SDS011;62599;49.146;10.426;2023-11-19T00:35:48;4.80;;;2.40;;
74241;SDS011;62599;49.146;10.426;2023-11-19T00:38:13;4.25;;;2.30;;
74241;SDS011;62599;49.146;10.426;2023-11-19T00:40:39;4.43;;;2.80;;
74241;SDS011;62599;49.146;10.426;2023-11-19T00:43:05;4.65;;;2.28;;
74241;SDS011;62599;49.146;10.426;2023-11-19T00:45:31;4.13;;;2.17;;
74241;SDS011;62599;49.146;10.426;2023-11-19T00:47:56;5.87;;;3.23;;
74241;SDS011;62599;49.146;10.426;2023-11-19T00:50:21;3.47;;;2.57;;
74241;SDS011;62599;49.146;10.426;2023-11-19T00:52:47;4.82;;;3.33;;
74241;SDS011;62599;49.146;10.426;2023-11-19T00:55:13;5.73;;;3.70;;
74241;SDS011;62599;49.146;10.426;2023-11-19T00:57:38;5.13;;;3.15;;
74241;SDS011;62599;49.146;10.426;2023-11-19T01:00:04;4.77;;;2.57;;
74241;SDS011;62599;49.146;10.426;2023-11-19T01:02:38;3.72;;;2.58;;
74241;SDS011;62599;49.146;10.426;2023-11-19T01:05:03;5.33;;;2.60;;
74241;SDS011;62599;49.146;10.426;2023-11-19T01:07:28;6.85;;;3.88;;
74241;SDS011;62599;49.146;10.426;2023-11-19T01:09:54;6.40;;;3.35;;
74241;SDS011;62599;49.146;10.426;2023-11-19T01:12:20;4.97;;;2.72;;
74241;SDS011;62599;49.146;10.426;2023-11-19T01:14:45;4.90;;;3.27;;
74241;SDS011;62599;49.146;10.426;2023-11-19T01:17:14;5.30;;;2.55;;
74241;SDS011;62599;49.146;10.426;2023-11-19T01:19:42;3.17;;;2.13;;
74241;SDS011;62599;49.146;10.426;2023-11-19T01:22:11;5.20;;;2.65;;
74241;SDS011;62599;49.146;10.426;2023-11-19T01:24:39;4.05;;;2.28;;
74241;SDS011;62599;49.146;10.426;2023-11-19T01:27:15;4.53;;;2.50;;
74241;SDS011;62599;49.146;10.426;2023-11-19T01:29:44;4.60;;;2.83;;
74241;SDS011;62599;49.146;10.426;2023-11-19T01:32:09;4.35;;;2.47;;
74241;SDS011;62599;49.146;10.426;2023-11-19T01:34:40;4.00;;;2.63;;
74241;SDS011;62599;49.146;10.426;2023-11-19T01:39:57;4.20;;;2.28;;
74241;SDS011;62599;49.146;10.426;2023-11-19T01:42:31;4.22;;;2.30;;
74241;SDS011;62599;49.146;10.426;2023-11-19T01:45:07;5.25;;;2.80;;
74241;SDS011;62599;49.146;10.426;2023-11-19T01:47:37;3.42;;;2.13;;
74241;SDS011;62599;49.146;10.426;2023-11-19T01:50:05;3.70;;;2.40;;
74241;SDS011;62599;49.146;10.426;2023-11-19T01:52:34;6.65;;;3.40;;
74241;SDS011;62599;49.146;10.426;2023-11-19T01:55:01;6.25;;;2.78;;
74241;SDS011;62599;49.146;10.426;2023-11-19T01:57:28;7.65;;;4.35;;
74241;SDS011;62599;49.146;10.426;2023-11-19T01:59:53;6.67;;;2.93;;
74241;SDS011;62599;49.146;10.426;2023-11-19T02:02:21;5.32;;;2.67;;
74241;SDS011;62599;49.146;10.426;2023-11-19T02:04:49;4.32;;;2.60;;
74241;SDS011;62599;49.146;10.426;2023-11-19T02:07:14;6.30;;;3.40;;
74241;SDS011;62599;49.146;10.426;2023-11-19T02:09:42;5.80;;;3.58;;
74241;SDS011;62599;49.146;10.426;2023-11-19T02:12:08;6.70;;;1.88;;
74241;SDS011;62599;49.146;10.426;2023-11-19T02:14:34;2.85;;;1.85;;
74241;SDS011;62599;49.146;10.426;2023-11-19T02:16:59;2.07;;;0.90;;
74241;SDS011;62599;49.146;10.426;2023-11-19T02:19:25;1.80;;;0.80;;
74241;SDS011;62599;49.146;10.426;2023-11-19T02:21:50;2.13;;;0.90;;
74241;SDS011;62599;49.146;10.426;2023-11-19T02:24:15;1.40;;;0.50;;
74241;SDS011;62599;49.146;10.426;2023-11-19T02:26:55;1.05;;;0.90;;
74241;SDS011;62599;49.146;10.426;2023-11-19T02:29:24;1.65;;;1.55;;
74241;SDS011;62599;49.146;10.426;2023-11-19T02:31:49;2.40;;;1.17;;
74241;SDS011;62599;49.146;10.426;2023-11-19T02:34:14;1.30;;;0.83;;
74241;SDS011;62599;49.146;10.426;2023-11-19T02:36:41;1.50;;;0.73;;
74241;SDS011;62599;49.146;10.426;2023-11-19T02:39:06;0.53;;;0.50;;
74241;SDS011;62599;49.146;10.426;2023-11-19T02:41:35;1.20;;;0.82;;
74241;SDS011;62599;49.146;10.426;2023-11-19T02:44:00;0.73;;;0.52;;
74241;SDS011;62599;49.146;10.426;2023-11-19T02:46:26;1.00;;;0.80;;
74241;SDS011;62599;49.146;10.426;2023-11-19T02:48:51;1.55;;;0.77;;
74241;SDS011;62599;49.146;10.426;2023-11-19T02:51:16;0.77;;;0.43;;
74241;SDS011;62599;49.146;10.426;2023-11-19T02:53:43;0.98;;;0.43;;
74241;SDS011;62599;49.146;10.426;2023-11-19T02:56:09;1.30;;;0.50;;
74241;SDS011;62599;49.146;10.426;2023-11-19T02:58:45;1.40;;;1.00;;
74241;SDS011;62599;49.146;10.426;2023-11-19T03:01:11;2.00;;;0.93;;
74241;SDS011;62599;49.146;10.426;2023-11-19T03:03:47;0.50;;;0.38;;
74241;SDS011;62599;49.146;10.426;2023-11-19T03:08:43;0.55;;;0.30;;
74241;SDS011;62599;49.146;10.426;2023-11-19T03:11:09;1.07;;;0.43;;
74241;SDS011;62599;49.146;10.426;2023-11-19T03:13:34;0.53;;;0.40;;
74241;SDS011;62599;49.146;10.426;2023-11-19T03:15:59;0.40;;;0.30;;
74241;SDS011;62599;49.146;10.426;2023-11-19T03:18:25;0.73;;;0.63;;
74241;SDS011;62599;49.146;10.426;2023-11-19T03:20:50;0.25;;;0.20;;
74241;SDS011;62599;49.146;10.426;2023-11-19T03:23:15;1.17;;;0.40;;
74241;SDS011;62599;49.146;10.426;2023-11-19T03:25:41;0.53;;;0.30;;
74241;SDS011;62599;49.146;10.426;2023-11-19T03:28:06;0.67;;;0.30;;
74241;SDS011;62599;49.146;10.426;2023-11-19T03:30:31;0.40;;;0.32;;
74241;SDS011;62599;49.146;10.426;2023-11-19T03:32:57;0.60;;;0.27;;
74241;SDS011;62599;49.146;10.426;2023-11-19T03:35:22;0.35;;;0.25;;
74241;SDS011;62599;49.146;10.426;2023-11-19T03:37:48;0.65;;;0.45;;
74241;SDS011;62599;49.146;10.426;2023-11-19T03:40:13;2.27;;;0.30;;
74241;SDS011;62599;49.146;10.426;2023-11-19T03:42:39;0.70;;;0.38;;
74241;SDS011;62599;49.146;10.426;2023-11-19T03:45:05;1.17;;;0.40;;
74241;SDS011;62599;49.146;10.426;2023-11-19T03:47:32;0.45;;;0.32;;
74241;SDS011;62599;49.146;10.426;2023-11-19T03:49:57;0.57;;;0.37;;
74241;SDS011;62599;49.146;10.426;2023-11-19T03:52:22;0.37;;;0.30;;
74241;SDS011;62599;49.146;10.426;2023-11-19T03:54:47;0.67;;;0.20;;
74241;SDS011;62599;49.146;10.426;2023-11-19T03:57:13;0.80;;;0.30;;
74241;SDS011;62599;49.146;10.426;2023-11-19T03:59:38;0.70;;;0.70;;
74241;SDS011;62599;49.146;10.426;2023-11-19T04:02:04;0.43;;;0.38;;
74241;SDS011;62599;49.146;10.426;2023-11-19T04:04:29;0.50;;;0.38;;
74241;SDS011;62599;49.146;10.426;2023-11-19T04:06:55;0.45;;;0.25;;
74241;SDS011;62599;49.146;10.426;2023-11-19T04:09:21;1.63;;;0.53;;
74241;SDS011;62599;49.146;10.426;2023-11-19T04:11:46;0.40;;;0.30;;
74241;SDS011;62599;49.146;10.426;2023-11-19T04:14:12;0.22;;;0.22;;
74241;SDS011;62599;49.146;10.426;2023-11-19T04:16:38;0.60;;;0.35;;
74241;SDS011;62599;49.146;10.426;2023-11-19T04:19:03;0.40;;;0.40;;
74241;SDS011;62599;49.146;10.426;2023-11-19T04:21:29;0.30;;;0.22;;
74241;SDS011;62599;49.146;10.426;2023-11-19T04:23:54;0.27;;;0.13;;
74241;SDS011;62599;49.146;10.426;2023-11-19T04:26:19;1.17;;;0.20;;
74241;SDS011;62599;49.146;10.426;2023-11-19T04:28:45;0.20;;;0.10;;
74241;SDS011;62599;49.146;10.426;2023-11-19T04:31:11;0.25;;;0.25;;
74241;SDS011;62599;49.146;10.426;2023-11-19T04:33:36;0.50;;;0.33;;
74241;SDS011;62599;49.146;10.426;2023-11-19T04:36:01;0.20;;;0.10;;
74241;SDS011;62599;49.146;10.426;2023-11-19T04:38:27;0.40;;;0.40;;
74241;SDS011;62599;49.146;10.426;2023-11-19T04:40:52;0.23;;;0.23;;
74241;SDS011;62599;49.146;10.426;2023-11-19T04:43:18;0.37;;;0.10;;
74241;SDS011;62599;49.146;10.426;2023-11-19T04:45:44;0.25;;;0.25;;
74241;SDS011;62599;49.146;10.426;2023-11-19T04:48:09;0.50;;;0.50;;
74241;SDS011;62599;49.146;10.426;2023-11-19T04:50:38;0.65;;;0.28;;
74241;SDS011;62599;49.146;10.426;2023-11-19T04:53:05;0.15;;;0.15;;
74241;SDS011;62599;49.146;10.426;2023-11-19T04:55:30;0.50;;;0.37;;
74241;SDS011;62599;49.146;10.426;2023-11-19T04:57:55;0.85;;;0.43;;
74241;SDS011;62599;49.146;10.426;2023-11-19T05:00:21;0.95;;;0.40;;
74241;SDS011;62599;49.146;10.426;2023-11-19T05:02:46;0.73;;;0.50;;
74241;SDS011;62599;49.146;10.426;2023-11-19T05:05:12;0.30;;;0.20;;
74241;SDS011;62599;49.146;10.426;2023-11-19T05:07:38;0.30;;;0.20;;
74241;SDS011;62599;49.146;10.426;2023-11-19T05:10:04;1.05;;;0.43;;
74241;SDS011;62599;49.146;10.426;2023-11-19T05:12:31;0.40;;;0.30;;
74241;SDS011;62599;49.146;10.426;2023-11-19T05:14:56;1.23;;;0.30;;
74241;SDS011;62599;49.146;10.426;2023-11-19T05:17:22;0.80;;;0.40;;
74241;SDS011;62599;49.146;10.426;2023-11-19T05:19:48;0.95;;;0.52;;
74241;SDS011;62599;49.146;10.426;2023-11-19T05:22:14;1.52;;;0.13;;
74241;SDS011;62599;49.146;10.426;2023-11-19T05:24:39;0.60;;;0.30;;
74241;SDS011;62599;49.146;10.426;2023-11-19T05:27:05;0.50;;;0.40;;
74241;SDS011;62599;49.146;10.426;2023-11-19T05:29:31;0.77;;;0.50;;
74241;SDS011;62599;49.146;10.426;2023-11-19T05:31:57;0.37;;;0.37;;
74241;SDS011;62599;49.146;10.426;2023-11-19T05:34:22;0.60;;;0.37;;
74241;SDS011;62599;49.146;10.426;2023-11-19T05:36:48;0.40;;;0.22;;
74241;SDS011;62599;49.146;10.426;2023-11-19T05:39:13;0.30;;;0.20;;
74241;SDS011;62599;49.146;10.426;2023-11-19T05:41:40;0.60;;;0.60;;
74241;SDS011;62599;49.146;10.426;2023-11-19T05:44:05;0.43;;;0.43;;
74241;SDS011;62599;49.146;10.426;2023-11-19T05:46:31;0.45;;;0.30;;
74241;SDS011;62599;49.146;10.426;2023-11-19T05:48:57;0.25;;;0.10;;
74241;SDS011;62599;49.146;10.426;2023-11-19T05:51:22;0.57;;;0.57;;
74241;SDS011;62599;49.146;10.426;2023-11-19T05:53:49;0.40;;;0.10;;
74241;SDS011;62599;49.146;10.426;2023-11-19T05:56:15;0.47;;;0.47;;
74241;SDS011;62599;49.146;10.426;2023-11-19T05:58:41;0.40;;;0.22;;
74241;SDS011;62599;49.146;10.426;2023-11-19T06:01:06;0.82;;;0.40;;
74241;SDS011;62599;49.146;10.426;2023-11-19T06:03:32;1.15;;;0.25;;
74241;SDS011;62599;49.146;10.426;2023-11-19T06:05:58;0.22;;;0.22;;
74241;SDS011;62599;49.146;10.426;2023-11-19T06:08:23;0.30;;;0.30;;
74241;SDS011;62599;49.146;10.426;2023-11-19T06:10:48;0.67;;;0.30;;
74241;SDS011;62599;49.146;10.426;2023-11-19T06:13:16;0.10;;;0.00;;
74241;SDS011;62599;49.146;10.426;2023-11-19T06:15:41;0.50;;;0.20;;
74241;SDS011;62599;49.146;10.426;2023-11-19T06:18:06;0.40;;;0.22;;
74241;SDS011;62599;49.146;10.426;2023-11-19T06:20:33;0.55;;;0.22;;
74241;SDS011;62599;49.146;10.426;2023-11-19T06:22:59;0.35;;;0.20;;
74241;SDS011;62599;49.146;10.426;2023-11-19T06:25:26;0.40;;;0.32;;
74241;SDS011;62599;49.146;10.426;2023-11-19T06:27:52;3.50;;;0.50;;
74241;SDS011;62599;49.146;10.426;2023-11-19T06:30:18;0.40;;;0.40;;
74241;SDS011;62599;49.146;10.426;2023-11-19T06:32:44;1.60;;;0.32;;
74241;SDS011;62599;49.146;10.426;2023-11-19T06:35:09;0.20;;;0.20;;
74241;SDS011;62599;49.146;10.426;2023-11-19T06:37:35;0.40;;;0.40;;
74241;SDS011;62599;49.146;10.426;2023-11-19T06:40:00;0.50;;;0.35;;
74241;SDS011;62599;49.146;10.426;2023-11-19T06:42:25;0.00;;;0.00;;
74241;SDS011;62599;49.146;10.426;2023-11-19T06:44:51;0.22;;;0.15;;
74241;SDS011;62599;49.146;10.426;2023-11-19T06:47:16;0.30;;;0.20;;
74241;SDS011;62599;49.146;10.426;2023-11-19T06:49:43;2.25;;;0.50;;
74241;SDS011;62599;49.146;10.426;2023-11-19T06:52:08;0.82;;;0.40;;
74241;SDS011;62599;49.146;10.426;2023-11-19T06:54:34;0.65;;;0.30;;
74241;SDS011;62599;49.146;10.426;2023-11-19T06:56:59;1.63;;;0.22;;
74241;SDS011;62599;49.146;10.426;2023-11-19T06:59:24;0.73;;;0.43;;
74241;SDS011;62599;49.146;10.426;2023-11-19T07:01:50;1.10;;;0.43;;
74241;SDS011;62599;49.146;10.426;2023-11-19T07:04:15;1.33;;;0.63;;
74241;SDS011;62599;49.146;10.426;2023-11-19T07:06:40;0.97;;;0.60;;
74241;SDS011;62599;49.146;10.426;2023-11-19T07:09:06;0.85;;;0.70;;
74241;SDS011;62599;49.146;10.426;2023-11-19T07:11:38;4.85;;;0.55;;
74241;SDS011;62599;49.146;10.426;2023-11-19T07:14:04;2.60;;;0.52;;
74241;SDS011;62599;49.146;10.426;2023-11-19T07:16:29;0.50;;;0.40;;
74241;SDS011;62599;49.146;10.426;2023-11-19T07:18:55;1.25;;;0.60;;
74241;SDS011;62599;49.146;10.426;2023-11-19T07:21:21;0.40;;;0.20;;
74241;SDS011;62599;49.146;10.426;2023-11-19T07:23:46;1.53;;;0.50;;
74241;SDS011;62599;49.146;10.426;2023-11-19T07:26:11;1.10;;;0.22;;
74241;SDS011;62599;49.146;10.426;2023-11-19T07:28:37;1.87;;;0.70;;
74241;SDS011;62599;49.146;10.426;2023-11-19T07:31:02;0.60;;;0.33;;
74241;SDS011;62599;49.146;10.426;2023-11-19T07:33:27;0.25;;;0.17;;
74241;SDS011;62599;49.146;10.426;2023-11-19T07:35:54;0.20;;;0.20;;
74241;SDS011;62599;49.146;10.426;2023-11-19T07:38:20;0.25;;;0.22;;
74241;SDS011;62599;49.146;10.426;2023-11-19T07:40:45;0.50;;;0.23;;
74241;SDS011;62599;49.146;10.426;2023-11-19T07:43:10;0.30;;;0.30;;
74241;SDS011;62599;49.146;10.426;2023-11-19T07:45:35;0.40;;;0.20;;
74241;SDS011;62599;49.146;10.426;2023-11-19T07:48:01;0.22;;;0.10;;
74241;SDS011;62599;49.146;10.426;2023-11-19T07:50:26;0.60;;;0.50;;
74241;SDS011;62599;49.146;10.426;2023-11-19T07:52:51;0.47;;;0.30;;
74241;SDS011;62599;49.146;10.426;2023-11-19T07:55:17;0.50;;;0.40;;
74241;SDS011;62599;49.146;10.426;2023-11-19T07:57:42;1.10;;;0.43;;
74241;SDS011;62599;49.146;10.426;2023-11-19T08:00:07;2.63;;;0.83;;
74241;SDS011;62599;49.146;10.426;2023-11-19T08:02:37;0.43;;;0.35;;
74241;SDS011;62599;49.146;10.426;2023-11-19T08:05:02;0.53;;;0.53;;
74241;SDS011;62599;49.146;10.426;2023-11-19T08:07:28;0.45;;;0.30;;
74241;SDS011;62599;49.146;10.426;2023-11-19T08:09:53;0.75;;;0.50;;
74241;SDS011;62599;49.146;10.426;2023-11-19T08:12:18;0.70;;;0.50;;
74241;SDS011;62599;49.146;10.426;2023-11-19T08:14:44;0.87;;;0.77;;
74241;SDS011;62599;49.146;10.426;2023-11-19T08:17:09;1.40;;;0.67;;
74241;SDS011;62599;49.146;10.426;2023-11-19T08:19:34;0.43;;;0.32;;
74241;SDS011;62599;49.146;10.426;2023-11-19T08:21:59;1.80;;;0.57;;
74241;SDS011;62599;49.146;10.426;2023-11-19T08:24:26;0.52;;;0.30;;
74241;SDS011;62599;49.146;10.426;2023-11-19T08:26:51;0.30;;;0.30;;
74241;SDS011;62599;49.146;10.426;2023-11-19T08:29:16;0.20;;;0.13;;
74241;SDS011;62599;49.146;10.426;2023-11-19T08:31:42;0.30;;;0.27;;
74241;SDS011;62599;49.146;10.426;2023-11-19T08:34:08;0.70;;;0.70;;
74241;SDS011;62599;49.146;10.426;2023-11-19T08:36:34;0.70;;;0.40;;
74241;SDS011;62599;49.146;10.426;2023-11-19T08:38:59;0.88;;;0.68;;
74241;SDS011;62599;49.146;10.426;2023-11-19T08:41:24;0.53;;;0.33;;
74241;SDS011;62599;49.146;10.426;2023-11-19T08:43:50;0.68;;;0.22;;
74241;SDS011;62599;49.146;10.426;2023-11-19T08:46:16;0.82;;;0.30;;
74241;SDS011;62599;49.146;10.426;2023-11-19T08:48:42;0.40;;;0.22;;
74241;SDS011;62599;49.146;10.426;2023-11-19T08:51:07;0.40;;;0.40;;
74241;SDS011;62599;49.146;10.426;2023-11-19T08:53:35;0.40;;;0.40;;
74241;SDS011;62599;49.146;10.426;2023-11-19T08:56:01;0.45;;;0.45;;
74241;SDS011;62599;49.146;10.426;2023-11-19T08:58:28;0.40;;;0.40;;
74241;SDS011;62599;49.146;10.426;2023-11-19T09:00:53;0.47;;;0.35;;
74241;SDS011;62599;49.146;10.426;2023-11-19T09:03:18;1.13;;;0.30;;
74241;SDS011;62599;49.146;10.426;2023-11-19T09:05:45;1.48;;;0.40;;
74241;SDS011;62599;49.146;10.426;2023-11-19T09:08:10;0.43;;;0.43;;
74241;SDS011;62599;49.146;10.426;2023-11-19T09:10:36;0.98;;;0.63;;
74241;SDS011;62599;49.146;10.426;2023-11-19T09:13:02;0.32;;;0.17;;
74241;SDS011;62599;49.146;10.426;2023-11-19T09:15:27;0.97;;;0.30;;
74241;SDS011;62599;49.146;10.426;2023-11-19T09:17:53;0.60;;;0.60;;
74241;SDS011;62599;49.146;10.426;2023-11-19T09:20:19;0.15;;;0.13;;
74241;SDS011;62599;49.146;10.426;2023-11-19T09:22:46;4.70;;;1.85;;
74241;SDS011;62599;49.146;10.426;2023-11-19T09:25:12;2.20;;;0.90;;
74241;SDS011;62599;49.146;10.426;2023-11-19T09:27:41;1.17;;;0.60;;
74241;SDS011;62599;49.146;10.426;2023-11-19T09:30:09;4.20;;;0.90;;
74241;SDS011;62599;49.146;10.426;2023-11-19T09:32:37;6.95;;;2.33;;
74241;SDS011;62599;49.146;10.426;2023-11-19T09:35:05;1.10;;;0.57;;
74241;SDS011;62599;49.146;10.426;2023-11-19T09:40:51;4.30;;;1.60;;
74241;SDS011;62599;49.146;10.426;2023-11-19T09:43:18;0.70;;;0.63;;
74241;SDS011;62599;49.146;10.426;2023-11-19T09:45:48;0.40;;;0.32;;
74241;SDS011;62599;49.146;10.426;2023-11-19T09:51:16;0.47;;;0.40;;
74241;SDS011;62599;49.146;10.426;2023-11-19T09:53:50;3.30;;;0.25;;
74241;SDS011;62599;49.146;10.426;2023-11-19T09:56:18;1.17;;;0.35;;
74241;SDS011;62599;49.146;10.426;2023-11-19T09:58:44;0.70;;;0.70;;
74241;SDS011;62599;49.146;10.426;2023-11-19T10:01:12;1.73;;;0.20;;
74241;SDS011;62599;49.146;10.426;2023-11-19T10:03:40;0.35;;;0.30;;
74241;SDS011;62599;49.146;10.426;2023-11-19T10:06:09;2.25;;;0.22;;
74241;SDS011;62599;49.146;10.426;2023-11-19T10:08:37;1.13;;;0.20;;
74241;SDS011;62599;49.146;10.426;2023-11-19T10:11:06;0.73;;;0.30;;
74241;SDS011;62599;49.146;10.426;2023-11-19T10:13:35;1.10;;;0.32;;
74241;SDS011;62599;49.146;10.426;2023-11-19T10:16:04;0.32;;;0.25;;
74241;SDS011;62599;49.146;10.426;2023-11-19T10:18:33;0.68;;;0.38;;
74241;SDS011;62599;49.146;10.426;2023-11-19T10:21:03;0.32;;;0.30;;
74241;SDS011;62599;49.146;10.426;2023-11-19T10:23:31;0.30;;;0.30;;
74241;SDS011;62599;49.146;10.426;2023-11-19T10:26:03;0.60;;;0.32;;
74241;SDS011;62599;49.146;10.426;2023-11-19T10:28:38;0.20;;;0.20;;
74241;SDS011;62599;49.146;10.426;2023-11-19T10:31:09;0.50;;;0.13;;
74241;SDS011;62599;49.146;10.426;2023-11-19T10:33:59;0.68;;;0.43;;
74241;SDS011;62599;49.146;10.426;2023-11-19T10:36:38;0.45;;;0.45;;
74241;SDS011;62599;49.146;10.426;2023-11-19T10:39:05;1.25;;;0.50;;
74241;SDS011;62599;49.146;10.426;2023-11-19T10:41:32;3.95;;;0.68;;
74241;SDS011;62599;49.146;10.426;2023-11-19T10:44:05;2.58;;;0.43;;
74241;SDS011;62599;49.146;10.426;2023-11-19T10:46:39;2.05;;;0.43;;
74241;SDS011;62599;49.146;10.426;2023-11-19T10:49:05;0.43;;;0.32;;
74241;SDS011;62599;49.146;10.426;2023-11-19T10:51:34;1.30;;;0.68;;
74241;SDS011;62599;49.146;10.426;2023-11-19T10:54:03;1.00;;;0.30;;
74241;SDS011;62599;49.146;10.426;2023-11-19T10:56:32;2.15;;;0.60;;
74241;SDS011;62599;49.146;10.426;2023-11-19T10:58:58;0.77;;;0.65;;
74241;SDS011;62599;49.146;10.426;2023-11-19T11:01:27;1.23;;;0.30;;
74241;SDS011;62599;49.146;10.426;2023-11-19T11:03:58;4.45;;;0.45;;
74241;SDS011;62599;49.146;10.426;2023-11-19T11:06:32;0.30;;;0.13;;
74241;SDS011;62599;49.146;10.426;2023-11-19T11:08:59;2.35;;;0.70;;
74241;SDS011;62599;49.146;10.426;2023-11-19T11:11:24;0.75;;;0.35;;
74241;SDS011;62599;49.146;10.426;2023-11-19T11:13:51;0.80;;;0.32;;
74241;SDS011;62599;49.146;10.426;2023-11-19T11:16:18;3.22;;;1.27;;
74241;SDS011;62599;49.146;10.426;2023-11-19T11:18:44;0.95;;;0.65;;
74241;SDS011;62599;49.146;10.426;2023-11-19T11:21:10;8.45;;;3.15;;
74241;SDS011;62599;49.146;10.426;2023-11-19T11:29:47;1.57;;;0.17;;
74241;SDS011;62599;49.146;10.426;2023-11-19T11:32:40;0.63;;;0.43;;
74241;SDS011;62599;49.146;10.426;2023-11-19T11:39:33;0.90;;;0.43;;
74241;SDS011;62599;49.146;10.426;2023-11-19T11:50:07;0.50;;;0.35;;
74241;SDS011;62599;49.146;10.426;2023-11-19T11:52:33;1.63;;;1.00;;
74241;SDS011;62599;49.146;10.426;2023-11-19T11:55:04;3.37;;;1.07;;
74241;SDS011;62599;49.146;10.426;2023-11-19T11:59:54;1.10;;;0.55;;
74241;SDS011;62599;49.146;10.426;2023-11-19T12:02:20;1.70;;;0.63;;
74241;SDS011;62599;49.146;10.426;2023-11-19T12:04:57;0.47;;;0.47;;
74241;SDS011;62599;49.146;10.426;2023-11-19T12:07:22;1.30;;;0.15;;
74241;SDS011;62599;49.146;10.426;2023-11-19T12:09:51;0.75;;;0.25;;
74241;SDS011;62599;49.146;10.426;2023-11-19T12:12:17;1.48;;;0.10;;
74241;SDS011;62599;49.146;10.426;2023-11-19T12:20:05;0.80;;;0.43;;
74241;SDS011;62599;49.146;10.426;2023-11-19T12:22:40;0.43;;;0.30;;
74241;SDS011;62599;49.146;10.426;2023-11-19T12:25:06;0.25;;;0.25;;
74241;SDS011;62599;49.146;10.426;2023-11-19T12:27:32;1.10;;;0.57;;
74241;SDS011;62599;49.146;10.426;2023-11-19T12:30:01;0.73;;;0.70;;
74241;SDS011;62599;49.146;10.426;2023-11-19T12:32:36;0.32;;;0.32;;
74241;SDS011;62599;49.146;10.426;2023-11-19T12:35:02;0.93;;;0.52;;
74241;SDS011;62599;49.146;10.426;2023-11-19T12:37:27;0.73;;;0.43;;
74241;SDS011;62599;49.146;10.426;2023-11-19T12:39:54;6.28;;;0.73;;
74241;SDS011;62599;49.146;10.426;2023-11-19T12:42:19;1.77;;;0.50;;
74241;SDS011;62599;49.146;10.426;2023-11-19T12:44:56;1.20;;;0.40;;
74241;SDS011;62599;49.146;10.426;2023-11-19T12:49:56;0.30;;;0.10;;
74241;SDS011;62599;49.146;10.426;2023-11-19T12:52:22;0.93;;;0.38;;
74241;SDS011;62599;49.146;10.426;2023-11-19T12:54:48;1.23;;;0.63;;
74241;SDS011;62599;49.146;10.426;2023-11-19T12:57:14;0.43;;;0.43;;
74241;SDS011;62599;49.146;10.426;2023-11-19T12:59:40;1.35;;;1.25;;
74241;SDS011;62599;49.146;10.426;2023-11-19T13:02:05;2.37;;;0.30;;
74241;SDS011;62599;49.146;10.426;2023-11-19T13:04:31;0.32;;;0.30;;
74241;SDS011;62599;49.146;10.426;2023-11-19T13:06:57;1.97;;;0.50;;
74241;SDS011;62599;49.146;10.426;2023-11-19T13:09:26;6.03;;;0.68;;
74241;SDS011;62599;49.146;10.426;2023-11-19T13:11:52;0.90;;;0.45;;
74241;SDS011;62599;49.146;10.426;2023-11-19T13:14:18;0.32;;;0.32;;
74241;SDS011;62599;49.146;10.426;2023-11-19T13:16:44;0.63;;;0.40;;
74241;SDS011;62599;49.146;10.426;2023-11-19T13:19:10;0.40;;;0.20;;
74241;SDS011;62599;49.146;10.426;2023-11-19T13:21:39;0.45;;;0.32;;
74241;SDS011;62599;49.146;10.426;2023-11-19T13:24:07;0.73;;;0.43;;
74241;SDS011;62599;49.146;10.426;2023-11-19T13:26:32;1.10;;;0.47;;
74241;SDS011;62599;49.146;10.426;2023-11-19T13:28:58;0.63;;;0.40;;
74241;SDS011;62599;49.146;10.426;2023-11-19T13:31:23;1.37;;;0.40;;
74241;SDS011;62599;49.146;10.426;2023-11-19T13:33:48;2.57;;;0.93;;
74241;SDS011;62599;49.146;10.426;2023-11-19T13:36:14;0.83;;;0.10;;
74241;SDS011;62599;49.146;10.426;2023-11-19T13:38:39;2.05;;;0.57;;
74241;SDS011;62599;49.146;10.426;2023-11-19T13:41:06;1.48;;;0.45;;
74241;SDS011;62599;49.146;10.426;2023-11-19T13:43:34;0.35;;;0.20;;
74241;SDS011;62599;49.146;10.426;2023-11-19T13:45:59;1.27;;;0.70;;
74241;SDS011;62599;49.146;10.426;2023-11-19T13:48:27;1.20;;;0.50;;
74241;SDS011;62599;49.146;10.426;2023-11-19T13:50:57;1.13;;;0.40;;
74241;SDS011;62599;49.146;10.426;2023-11-19T13:53:23;0.20;;;0.20;;
74241;SDS011;62599;49.146;10.426;2023-11-19T13:55:48;0.73;;;0.45;;
74241;SDS011;62599;49.146;10.426;2023-11-19T13:58:14;0.20;;;0.20;;
74241;SDS011;62599;49.146;10.426;2023-11-19T14:00:39;0.57;;;0.38;;
74241;SDS011;62599;49.146;10.426;2023-11-19T14:03:10;0.60;;;0.32;;
74241;SDS011;62599;49.146;10.426;2023-11-19T14:05:38;2.42;;;0.63;;
74241;SDS011;62599;49.146;10.426;2023-11-19T14:08:06;2.60;;;0.22;;
74241;SDS011;62599;49.146;10.426;2023-11-19T14:10:36;0.77;;;0.20;;
74241;SDS011;62599;49.146;10.426;2023-11-19T14:13:01;0.40;;;0.22;;
74241;SDS011;62599;49.146;10.426;2023-11-19T14:15:30;0.40;;;0.30;;
74241;SDS011;62599;49.146;10.426;2023-11-19T14:18:00;1.45;;;0.38;;
74241;SDS011;62599;49.146;10.426;2023-11-19T14:20:31;1.58;;;0.40;;
74241;SDS011;62599;49.146;10.426;2023-11-19T14:22:56;0.28;;;0.20;;
74241;SDS011;62599;49.146;10.426;2023-11-19T14:25:22;1.63;;;0.65;;
74241;SDS011;62599;49.146;10.426;2023-11-19T14:27:48;0.50;;;0.40;;
74241;SDS011;62599;49.146;10.426;2023-11-19T14:30:13;4.83;;;0.27;;
74241;SDS011;62599;49.146;10.426;2023-11-19T14:32:39;1.40;;;0.30;;
74241;SDS011;62599;49.146;10.426;2023-11-19T14:35:11;1.08;;;0.38;;
74241;SDS011;62599;49.146;10.426;2023-11-19T14:37:37;0.40;;;0.40;;
74241;SDS011;62599;49.146;10.426;2023-11-19T14:40:05;0.50;;;0.50;;
74241;SDS011;62599;49.146;10.426;2023-11-19T14:42:32;0.93;;;0.30;;
74241;SDS011;62599;49.146;10.426;2023-11-19T14:45:06;0.25;;;0.10;;
74241;SDS011;62599;49.146;10.426;2023-11-19T14:47:32;0.28;;;0.10;;
74241;SDS011;62599;49.146;10.426;2023-11-19T14:49:57;0.70;;;0.30;;
74241;SDS011;62599;49.146;10.426;2023-11-19T14:52:22;0.97;;;0.73;;
74241;SDS011;62599;49.146;10.426;2023-11-19T14:54:48;4.43;;;0.50;;
74241;SDS011;62599;49.146;10.426;2023-11-19T14:57:13;0.40;;;0.40;;
74241;SDS011;62599;49.146;10.426;2023-11-19T14:59:39;0.88;;;0.57;;
74241;SDS011;62599;49.146;10.426;2023-11-19T15:02:04;1.50;;;0.63;;
74241;SDS011;62599;49.146;10.426;2023-11-19T15:04:30;0.98;;;0.30;;
74241;SDS011;62599;49.146;10.426;2023-11-19T15:06:56;0.30;;;0.22;;
74241;SDS011;62599;49.146;10.426;2023-11-19T15:09:24;0.30;;;0.30;;
74241;SDS011;62599;49.146;10.426;2023-11-19T15:11:50;1.00;;;0.47;;